Robert Szymanski

Olheiro-Chefe - Piast
23 Out 2027
Sábado
Processo

Personalidade

Adaptabilidade (8) Ambição (16) Controvérsia (3) Lealdade (6) Pressão (20) Profissionalismo (16) Espírito Esportivo (13) Temperamento (15)

Perfil

Estilo de Treinamento Democrático
Licença Continental A
Determinação 4
Gestão de Pessoas 6
Motivação 9
Disciplina 12
Satisfação no Trabalho
100%
Fadiga
0%
Função Olheiro-Chefe
Salário 44.5K p/s
Contrato 14.03.2028

Desempenho

Comportamento Bom
Eficácia do Treinamento
37%
Desenvolvimento do Jogador
20%
Prevenção de Lesões
35%
Implementação Tática
30%

Eventos Recentes

Participou de uma reunião de recrutamento agora
Recomendou um alvo de transferência agora
Participou de uma reunião de recrutamento agora
Recomendou um alvo de transferência agora
Recomendou um alvo de transferência agora
Recomendou um alvo de transferência 7d atrás
Recomendou um alvo de transferência 7d atrás
Recomendou um alvo de transferência 7d atrás

Monitorando agora

224
Jogador Clube Status Habilidade Confiança Observado Última observação Último voto
Wilfred Correa Caracas Ativo 99 / 99 40% 1 09.08.2027 -
Yaw Adjei Hasaacas Ativo 85 / 91 40% 1 09.08.2027 -
Gladson Sulemana Liberty Professionals Ativo 99 / 105 40% 1 09.08.2027 -
Myles Roberts Doncaster Rovers Ativo 113 / 103 40% 2 26.07.2027 -
Luke Southwood Bristol Rovers Ativo 104 / 111 40% 1 26.07.2027 -
Bailey Peacock-Farrell Blackpool Negociando 111 / 117 40% 1 26.07.2027 -
Filip Szymczak Zaglebie Ativo 125 / 120 72% 1 19.07.2027 Aprovar
George Wickens Lincoln City Ativo 123 / 128 40% 1 19.07.2027 -
Heorhii Yermakov Metalist Negociando 123 / 125 40% 1 19.07.2027 -
Kelly Saravanan Salford City Ativo 120 / 116 40% 1 12.07.2027 -
Callum O'Hare Sheffield United Ativo 139 / 126 40% 1 12.07.2027 -
Sam Greenwood Bristol City Ativo 130 / 126 40% 1 12.07.2027 -
Fran Vieites Exeter City Ativo 129 / 125 40% 1 05.07.2027 -
Egil Selvik Watford Perdido 129 / 136 40% 1 05.07.2027 -
Caio Vidal FC Copenhagen Ativo 128 / 129 63% 1 01.06.2027 Aprovar
Norbert Barczak Korona Ativo 83 / 86 40% 1 31.05.2027 -
Tiago Freitas Benfica Ativo 108 / 120 40% 1 31.05.2027 -
Luke Baartman Bidvest Wits Ativo 115 / 109 40% 1 31.05.2027 -
Max Johnston Derby County Ativo 132 / 127 40% 7 29.05.2027 -
Rumarn Burrell Queens Park Rangers Ativo 123 / 129 40% 7 29.05.2027 -
Tomáš Rigo Stoke City Ativo 135 / 125 40% 1 29.05.2027 -
Romano Schmid Frosinone Ativo 145 / 142 40% 4 28.05.2027 -
Ollie Tanner Cardiff City Ativo 122 / 109 40% 3 28.05.2027 -
Guille Rosas Gijón Ativo 138 / 139 40% 1 28.05.2027 -
Jack Diamond Stockport County Ativo 117 / 121 40% 3 27.05.2027 -
Jonathan De Irastorza Levante Ativo 116 / 117 40% 2 27.05.2027 -
Leonardo Mendicino Bari Ativo 119 / 121 40% 2 27.05.2027 -
Bobby Clark Derby County Ativo 117 / 119 40% 1 27.05.2027 -
Karim Coulibaly RC Strasbourg Ativo 122 / 132 40% 1 27.05.2027 -
Leandro Martins Benfica Ativo 99 / 100 40% 2 26.05.2027 -
Riquelme Thompson-Jones Shrewsbury Town Ativo 103 / 113 40% 3 26.05.2027 -
Relebohile Mofokeng Orlando Pirates Ativo 114 / 123 40% 6 24.05.2027 -
Pietro Reggiori Pro Patria Ativo 92 / 89 40% 2 24.05.2027 -
Edmund Inusah WAFA Ativo 69 / 92 40% 1 24.05.2027 -
Koki Saito Queens Park Rangers Ativo 127 / 131 40% 3 22.05.2027 -
Adam Randell Bristol City Ativo 124 / 132 40% 2 21.05.2027 -
Daniel Kyerewaa Reading Ativo 114 / 110 40% 3 20.05.2027 -
Christian Saydee Wigan Athletic Ativo 107 / 117 40% 3 20.05.2027 -
Odin Bailey Stockport County Ativo 114 / 114 40% 1 20.05.2027 -
Oliver Skipp Leicester City Ativo 136 / 134 40% 2 19.05.2027 -
Abu Kamara Portsmouth Ativo 118 / 121 40% 4 19.05.2027 -
Ali Ahmed Norwich City Ativo 125 / 127 40% 4 19.05.2027 -
Aidomo Emakhu Oxford United Ativo 117 / 125 40% 3 17.05.2027 -
Welington Southampton Ativo 135 / 127 40% 1 17.05.2027 -
Lamine Cissé Peterborough United Ativo 124 / 118 40% 5 16.05.2027 -
Tyrese Campbell Sheffield United Ativo 126 / 133 40% 5 16.05.2027 -
Jay Stansfield Birmingham Ativo 128 / 124 40% 2 15.05.2027 -
Isaac Price West Bromwich Albion Ativo 134 / 135 40% 3 14.05.2027 -
Bosun Lawal Stoke City Ativo 125 / 127 40% 2 14.05.2027 -
Jovon Makama Norwich City Ativo 123 / 130 40% 3 13.05.2027 -
Sascha Britschgi Catanzaro Ativo 115 / 134 40% 2 12.05.2027 -
Gonçalo Oliveira Benfica Ativo 107 / 117 40% 2 12.05.2027 -
Isaiah Jones Luton Town Ativo 128 / 119 40% 4 11.05.2027 -
Oscar Schwartau Norwich City Ativo 127 / 129 40% 1 10.05.2027 -
Caleb Yirenkyi Coventry City Ativo 133 / 140 40% 1 10.05.2027 -
Lander Astiazarán Real Sociedad Ativo 110 / 111 40% 1 10.05.2027 -
Ramón Terrats Getafe Ativo 136 / 147 40% 5 09.05.2027 -
Giorgi Kvernadze Frosinone Ativo 126 / 123 40% 1 09.05.2027 -
Joel McGregor Swindon Town Ativo 95 / 98 40% 1 07.05.2027 -
Othmane Maamma Watford Ativo 120 / 130 40% 3 06.05.2027 -
Tshepang Moremi Orlando Pirates Ativo 121 / 123 40% 1 06.05.2027 -
Tommaso Cecotti Carpi Ativo 93 / 95 40% 1 05.05.2027 -
Paddy Lane Reading Ativo 117 / 101 40% 4 02.05.2027 -
Peter Federico Gornik Zabrze Ativo 129 / 131 40% 5 01.05.2027 -
Tyler Goodrham Oxford United Ativo 126 / 126 40% 4 01.05.2027 -
Myles Peart-Harris Oxford United Ativo 114 / 119 40% 2 30.04.2027 -
Sebastián Flores Rayo Vallecano Ativo 99 / 115 40% 1 30.04.2027 -
Enzo Cardozo Virtus Entella Ativo 110 / 122 40% 1 30.04.2027 -
Tim Iroegbunam Hull City Ativo 143 / 133 40% 5 29.04.2027 -
Zeidane Inoussa Swansea City Ativo 119 / 117 40% 5 27.04.2027 -
Jeon Jin-Woo Sheffield Wednesday Ativo 129 / 123 40% 4 27.04.2027 -
Tommy Conway Middlesbrough Ativo 129 / 124 40% 5 26.04.2027 -
Giorgi Chakvetadze Watford Ativo 134 / 126 40% 4 26.04.2027 -
Juan Bezerra Zamalek Ativo 115 / 134 40% 3 25.04.2027 -
Dylan Levitt Leyton Orient Ativo 113 / 114 40% 4 25.04.2027 -
Abraham Paintsil Hasaacas Ativo 97 / 97 40% 2 24.04.2027 -
Harry Clarke Preston Ativo 124 / 127 40% 1 23.04.2027 -
Daniel Kelly Derby County Ativo 118 / 114 40% 2 22.04.2027 -
Riley Owen Wycombe Wanderers Ativo 107 / 113 40% 1 22.04.2027 -
Max Bird Birmingham Ativo 129 / 132 40% 3 20.04.2027 -
Alfie Doughty Millwall Ativo 129 / 127 40% 1 18.04.2027 -
Milan van Ewijk Coventry City Ativo 137 / 134 40% 1 18.04.2027 -
Louie Barry Sheffield Wednesday Ativo 127 / 117 40% 2 16.04.2027 -
Jacques Ekomié Wrexham Ativo 132 / 134 40% 1 16.04.2027 -
Andre Brooks Sheffield United Ativo 122 / 136 40% 4 14.04.2027 -
Jack McGlynn Stoke City Ativo 133 / 138 40% 1 14.04.2027 -
Max Conway Bolton Wanderers Ativo 113 / 123 40% 1 11.04.2027 -
George Earthy Reading Ativo 115 / 123 40% 2 10.04.2027 -
Camillo Tavernelli Arezzo Ativo 119 / 115 40% 1 10.04.2027 -
Melker Widell Swansea City Ativo 116 / 128 40% 1 10.04.2027 -
Mathias Jørgensen Blackburn Rovers Ativo 126 / 122 40% 2 08.04.2027 -
Kasey McAteer Ipswich Town Ativo 131 / 127 40% 2 08.04.2027 -
Jack Moylan Lincoln City Ativo 106 / 109 40% 1 07.04.2027 -
Helinho Toluca Ativo 140 / 133 40% 2 06.04.2027 -
Konan N'Dri Lecce Ativo 136 / 121 40% 1 06.04.2027 -
Joe Gelhardt Hull City Ativo 137 / 131 40% 2 04.04.2027 -
Ronald Swansea City Ativo 131 / 119 40% 1 02.04.2027 -
Mihael Mlinarić Zaglebie Perdido 116 / 119 40% 2 01.04.2027 -
Xavier Amaechi Plymouth Argyle Ativo 106 / 104 40% 1 01.04.2027 -
Fraser Murray Wigan Athletic Ativo 113 / 121 40% 3 29.03.2027 -
Álex Valle Como Ativo 136 / 140 40% 2 28.03.2027 -
Petar Stanić Ludogorets Ativo 129 / 132 40% 2 24.03.2027 -
Mihailo Ivanović Millwall Ativo 117 / 129 40% 1 21.03.2027 -
Jason Knight Bristol City Ativo 121 / 134 40% 1 18.03.2027 -
Zeki Amdouni Burnley Ativo 128 / 134 40% 1 18.03.2027 -
Alex Lowry Wycombe Wanderers Ativo 109 / 112 40% 1 18.03.2027 -
Camilo Durán Bloemfontein Celtic Ativo 129 / 115 40% 5 17.03.2027 -
Paris Maghoma Norwich City Ativo 123 / 121 40% 1 15.03.2027 -
Maeson King Blackpool Ativo 99 / 112 40% 1 15.03.2027 -
Surprise Manthosi Polokwane City Ativo 89 / 83 40% 1 15.03.2027 -
Pablo Rodríguez Lech Ativo 130 / 132 40% 10 13.03.2027 -
Artem Slesar Zorya Ativo 114 / 121 40% 3 13.03.2027 -
Ethan Galbraith Swansea City Ativo 133 / 127 40% 3 12.03.2027 -
Brian Figueroa Morelia Ativo 102 / 108 40% 1 10.03.2027 -
Matías Gómez Valencia Ativo 117 / 129 40% 1 09.03.2027 -
Victor Ehibe Gazelle Garoua Ativo 76 / 82 40% 1 09.03.2027 -
Finn Azaz Southampton Ativo 137 / 134 40% 1 07.03.2027 -
Cian Ashford Cardiff City Ativo 117 / 118 40% 2 06.03.2027 -
Mduduzi Shabalala Kaizer Chiefs Ativo 100 / 101 40% 1 06.03.2027 -
Marcel Pięczek Korona Ativo 102 / 106 40% 4 12.02.2027 -
Toby Collyer West Bromwich Albion Ativo 124 / 139 40% 1 12.02.2027 -
Thulani Phiri Platinum Stars Ativo 116 / 126 40% 1 09.02.2027 -
Víctor Meseguer Wisla Krakow Ativo 121 / 131 40% 1 09.02.2027 -
Danilo Veiga Lecce Ativo 128 / 132 40% 1 05.02.2027 -
Callum Doyle Wrexham Ativo 132 / 128 40% 1 05.02.2027 -
Kayne Ramsay Charlton Athletic Ativo 134 / 119 40% 1 03.02.2027 -
Brad Hills Stockport County Ativo 110 / 122 40% 1 03.02.2027 -
Ivan Zhelizko Lechia Ativo 117 / 113 40% 2 01.02.2027 Mais informações
Gabriel Charpentier Cracovia Ativo 117 / 125 40% 3 18.01.2027 -
Jerome Karelse Golden Arrows Ativo 90 / 94 40% 3 18.01.2027 -
Michał Chrapek Ruch Ativo 99 / 100 65% 1 18.01.2027 Aprovar
Thulani Billiat Utrecht Ativo 136 / 136 61% 1 01.01.2027 Aprovar
Luis Palma Lech Ativo 118 / 113 40% 8 30.12.2026 -
Bernardo Vital Jagiellonia Ativo 135 / 129 40% 2 28.12.2026 -
Niall Ennis Blackpool Ativo 112 / 116 40% 1 28.12.2026 -
Etiosa Ighodaro Kaizer Chiefs Ativo 100 / 121 40% 1 28.12.2026 -
Tomasz Wójtowicz Lechia Ativo 110 / 115 40% 1 28.12.2026 -
Lewis Gibson Preston Ativo 128 / 124 40% 1 27.12.2026 -
Brooke Norton-Cuffy Hull City Ativo 139 / 130 40% 1 27.12.2026 -
Liam Thompson Mansfield Town Ativo 106 / 118 40% 1 25.12.2026 -
Bohdan Viunnyk Lechia Ativo 106 / 113 40% 8 22.12.2026 -
Bojan Radulović Huddersfield Town Ativo 117 / 112 40% 3 20.12.2026 -
Yousef Salech Cardiff City Ativo 129 / 127 40% 2 19.12.2026 -
Bradley Fink Wycombe Wanderers Ativo 105 / 108 40% 1 19.12.2026 -
Marezi Portsmouth Ativo 113 / 123 40% 1 16.12.2026 -
Lorent Tolaj Plymouth Argyle Ativo 115 / 120 40% 1 16.12.2026 -
Troy Parrott Betis Ativo 141 / 129 40% 5 13.12.2026 -
Cameron Archer Southampton Ativo 134 / 131 40% 1 13.12.2026 -
Demba Seck Partizan Ativo 124 / 116 40% 1 13.12.2026 -
Radek Šiler Podbrezova Ativo 104 / 113 40% 4 12.12.2026 -
Marin Benko Zadar Ativo 129 / 123 40% 3 12.12.2026 -
Toti Wolverhampton Ativo 130 / 134 40% 1 12.12.2026 -
Rúben Vinagre Legia Ativo 115 / 106 40% 1 12.12.2026 -
Patrick Agyemang Derby County Ativo 120 / 131 40% 1 11.12.2026 -
Kamogelo Sebelebele Orlando Pirates Ativo 111 / 112 40% 1 10.12.2026 -
Pau Resta Korona Ativo 106 / 106 40% 1 10.12.2026 -
Aidan Morris Middlesbrough Ativo 127 / 124 40% 1 09.12.2026 -
Edoardo Bove Watford Ativo 128 / 135 40% 1 09.12.2026 -
Jacob Greaves Ipswich Town Ativo 130 / 135 40% 1 08.12.2026 -
Aaron Connolly Ruch Ativo 117 / 125 40% 4 07.12.2026 -
Sandi Elsnik NK Domzale Ativo 106 / 108 40% 3 04.12.2026 -
Mateusz Bogusz Houston Dynamo Ativo 137 / 140 40% 5 04.12.2026 -
Ammar Ramadan DAC Dunajska Streda Ativo 127 / 130 40% 5 04.12.2026 -
Allahyar Sayyadmanesh Lech Ativo 129 / 129 40% 1 01.12.2026 -
Jakub Jakimiuk Angusht Ativo 72 / 82 40% 3 30.11.2026 -
Mykola Kukharevych Slovan Bratislava Ativo 116 / 113 40% 4 27.11.2026 -
Hlib Polyashenko Bukovyna Ativo 63 / 71 40% 1 25.11.2026 -
Wandile Duba Maritzburg United Ativo 96 / 100 40% 2 23.11.2026 -
Michalis Kosidis Zaglebie Ativo 117 / 105 40% 3 19.11.2026 -
Claudy M'Buyi Rapid Wien Ativo 119 / 111 40% 1 19.11.2026 -
Rajmund Molnár Pogon Ativo 106 / 120 40% 5 18.11.2026 -
Łukasz Bejger NK Celje Ativo 106 / 122 40% 1 18.11.2026 -
Kostiantyn Vivcharenko Dynamo Kyiv Ativo 115 / 118 40% 1 18.11.2026 -
Vladislav Blănuţă Lechia Ativo 107 / 113 40% 1 16.11.2026 -
Kelvin Yeboah Minnesota United FC Ativo 134 / 117 40% 1 15.11.2026 -
Wojciech Szafranek Angusht Ativo 79 / 84 40% 7 14.11.2026 -
Samuele Vignato HNK Rijeka Ativo 113 / 127 40% 1 14.11.2026 -
Mojmír Chytil Hajduk Split Ativo 138 / 131 40% 2 12.11.2026 -
Luca Langoni New England Revolution Ativo 142 / 131 40% 4 09.11.2026 -
Maciej Bortniczuk Metalist Ativo 89 / 90 40% 4 09.11.2026 -
Artur Amroziński Spartak Kostroma Ativo 87 / 83 40% 3 07.11.2026 -
Paul Mukairu Pogon Ativo 104 / 102 40% 5 06.11.2026 -
Jesus Ferreira Seattle Sounders Ativo 119 / 137 40% 1 05.11.2026 -
Matej Trusa DAC Dunajska Streda Ativo 109 / 109 40% 4 04.11.2026 -
Marvin Kaleta Rotherham United Ativo 99 / 112 40% 1 04.11.2026 -
Danil Glebov Dinamo Moscow Ativo 121 / 133 40% 1 04.11.2026 -
Caolan Boyd-Munce Wycombe Wanderers Ativo 115 / 116 40% 1 04.11.2026 -
Martin Minchev Cracovia Ativo 108 / 114 40% 1 30.10.2026 -
Brayan Gil Baltika Ativo 123 / 120 40% 1 29.10.2026 -
Denzel Jubitana Neftchi Ativo 107 / 125 40% 1 29.10.2026 -
Kévin Denkey FC Cincinnati Ativo 131 / 138 40% 1 27.10.2026 -
Job Ochieng Real Sociedad Ativo 112 / 115 40% 3 24.10.2026 -
Leonardo Campana New England Revolution Ativo 135 / 126 40% 1 23.10.2026 -
Cheikh Sabaly Vancouver Whitecaps Ativo 115 / 135 40% 2 22.10.2026 -
Wessam Abou Ali Columbus Crew Ativo 137 / 130 40% 2 19.10.2026 -
Agustín Anello Philadelphia Union Ativo 114 / 125 40% 1 19.10.2026 -
Duncan McGuire Houston Dynamo Ativo 123 / 119 40% 3 18.10.2026 -
Josh Sargent Toronto FC Ativo 127 / 133 40% 1 16.10.2026 -
Tomás Chancalay Minnesota United FC Ativo 119 / 132 40% 1 14.10.2026 -
Liel Abada Charlotte Football Club Ativo 140 / 125 40% 1 14.10.2026 -
Jan Hubocan Ferencvaros Ativo 124 / 128 40% 1 13.10.2026 -
Erik Botheim Viking Ativo 117 / 134 40% 1 13.10.2026 -
Bénie Traoré New York City Ativo 120 / 134 40% 2 12.10.2026 -
Mamoudou Karamoko Dinamo Bucharest Ativo 108 / 118 40% 1 11.10.2026 -
Joseph Rosales Austin FC Ativo 128 / 115 40% 1 08.10.2026 -
Rodrigo Conceição Jagiellonia Ativo 130 / 113 40% 1 08.10.2026 -
David Miculescu FCSB Ativo 114 / 120 40% 2 06.10.2026 -
Giacomo Vrioni Wolfsberger AC Ativo 117 / 120 40% 1 05.10.2026 -
Nathan Harriel Philadelphia Union Ativo 134 / 132 40% 1 05.10.2026 -
Ho-yeon Jung Minnesota United FC Ativo 121 / 122 40% 1 05.10.2026 -
Dominik Piła Cracovia Ativo 120 / 105 40% 1 05.10.2026 -
David Poreba Chicago Fire Ativo 106 / 87 40% 2 03.10.2026 -
Rafael Navarro St. Louis CITY SC Ativo 137 / 124 40% 4 01.10.2026 -
Alexander Aravena Portland Timbers Ativo 130 / 126 40% 2 29.09.2026 -
Tadeo Allende Inter Miami CF Ativo 132 / 115 40% 1 21.09.2026 -
Archie Goodwin Charlotte Football Club Ativo 119 / 115 40% 1 19.09.2026 -
Dejan Joveljić Seattle Sounders Ativo 127 / 127 40% 1 18.09.2026 -
Örvar Eggertsson Stjarnan Ativo 97 / 107 40% 1 16.09.2026 -
Bruno Damiani Philadelphia Union Ativo 114 / 112 40% 1 12.09.2026 -
Sunday Megwo Abia Warriors Ativo 101 / 107 40% 1 12.09.2026 -
Lewis Morgan Toronto FC Ativo 115 / 118 40% 1 24.08.2026 -
João Klauss LA Galaxy Ativo 119 / 138 40% 1 17.08.2026 -
Patryk Malamis Gornik Leczna Ativo 86 / 84 65% 1 03.08.2026 Aprovar
Patrik Hellebrand Korona Ativo 108 / 115 40% 1 01.08.2026 -